Time;durP1;ratioP1;P1;durP2;ratioP2;P2;SDS_P1;SDS_P2;PMS_P1;PMS_P2;Temp;Humidity;BMP_temperature;BMP_pressure;BME280_temperature;BME280_humidity;BME280_pressure;Samples;Min_cycle;Max_cycle;Signal;HPM_P1;HPM_P2
2022/04/25 00:02:16;;;;;;;6.40;6.10;;;;;;;14.43;91.71;99899.16;5054100;28;20033;-62
2022/04/25 00:04:42;;;;;;;6.25;5.97;;;;;;;14.40;92.08;99909.44;5053353;28;20060;-61
2022/04/25 00:07:07;;;;;;;6.00;5.80;;;;;;;14.42;91.40;99900.19;5053967;28;20032;-61
2022/04/25 00:09:33;;;;;;;6.35;6.05;;;;;;;14.48;90.91;99911.91;5053934;28;20035;-63
2022/04/25 00:11:59;;;;;;;6.40;6.10;;;;;;;14.34;92.37;99924.47;5054109;28;20043;-60
2022/04/25 00:14:25;;;;;;;5.93;5.72;;;;;;;14.36;91.64;99931.22;5047413;28;20118;-62
2022/04/25 00:16:55;;;;;;;6.53;6.22;;;;;;;14.57;89.81;99932.75;5053654;28;20017;-62
2022/04/25 00:19:24;;;;;;;6.40;6.10;;;;;;;14.48;90.92;99934.06;5053481;28;20029;-62
2022/04/25 00:21:51;;;;;;;6.18;5.95;;;;;;;14.54;89.84;99943.03;5052697;28;20025;-61
2022/04/25 00:24:17;;;;;;;6.00;5.80;;;;;;;14.48;90.16;99944.72;5048182;28;20036;-61
2022/04/25 00:26:43;;;;;;;6.43;6.13;;;;;;;14.41;90.29;99943.91;5049491;28;20480;-62
2022/04/25 00:29:08;;;;;;;6.13;5.93;;;;;;;14.50;90.07;99944.50;5046137;28;20044;-62
2022/04/25 00:31:34;;;;;;;6.10;5.90;;;;;;;14.46;90.43;99943.28;5052369;28;20029;-62
2022/04/25 00:33:59;;;;;;;6.72;6.43;;;;;;;14.38;90.21;99950.47;5057752;28;20070;-62
2022/04/25 00:36:25;;;;;;;6.00;5.80;;;;;;;14.37;90.70;99942.69;5053390;28;20055;-61
2022/04/25 00:38:50;;;;;;;6.20;5.95;;;;;;;14.38;90.28;99937.13;5052501;28;20035;-61
2022/04/25 00:41:16;;;;;;;6.35;6.07;;;;;;;14.37;90.02;99924.84;5051968;28;20043;-61
2022/04/25 00:43:41;;;;;;;6.15;5.93;;;;;;;14.45;89.55;99928.28;5053362;28;20033;-61
2022/04/25 00:46:20;;;;;;;6.70;6.40;;;;;;;14.53;87.87;99915.53;5053074;28;20037;-61
2022/04/25 00:48:46;;;;;;;6.32;6.03;;;;;;;14.40;89.14;99909.44;5045592;28;20079;-61
2022/04/25 00:51:12;;;;;;;6.55;6.25;;;;;;;14.39;89.05;99905.94;5052177;28;20031;-62
2022/04/25 00:53:38;;;;;;;6.40;6.10;;;;;;;14.37;88.13;99903.50;5052957;28;20028;-62
2022/04/25 00:56:05;;;;;;;6.60;6.30;;;;;;;14.40;87.75;99904.13;5040907;28;20021;-62
2022/04/25 00:58:30;;;;;;;6.38;6.07;;;;;;;14.35;87.63;99918.09;5051854;28;20021;-61
2022/04/25 01:00:56;;;;;;;6.50;6.20;;;;;;;14.28;87.94;99909.31;5052940;28;20032;-62
2022/04/25 01:03:21;;;;;;;6.47;6.18;;;;;;;14.33;87.01;99909.50;5053268;28;20033;-62
2022/04/25 01:05:47;;;;;;;6.68;6.38;;;;;;;14.35;86.35;99915.41;5052853;28;20495;-61
2022/04/25 01:08:12;;;;;;;6.38;6.07;;;;;;;14.19;87.59;99924.75;5052760;28;20021;-62
2022/04/25 01:10:38;;;;;;;6.20;5.95;;;;;;;14.21;87.17;99937.84;5048483;28;20100;-61
2022/04/25 01:13:05;;;;;;;6.57;6.28;;;;;;;14.24;87.37;99953.44;5052094;28;20033;-61
2022/04/25 01:15:31;;;;;;;6.50;6.20;;;;;;;14.20;88.11;99962.91;5052600;28;20020;-61
2022/04/25 01:17:56;;;;;;;6.65;6.35;;;;;;;14.19;88.36;99969.28;5051728;28;20079;-61
2022/04/25 01:20:22;;;;;;;6.45;6.15;;;;;;;14.17;88.76;99979.31;5052489;28;20496;-63
2022/04/25 01:28:38;;;;;;;6.20;5.95;;;;;;;14.05;89.79;99972.00;5052284;28;20090;-61
2022/04/25 01:31:04;;;;;;;6.30;6.00;;;;;;;14.30;87.61;99957.91;5052339;28;20086;-62
2022/04/25 01:33:29;;;;;;;6.10;5.90;;;;;;;14.74;82.16;99950.94;5064196;28;20395;-61
2022/04/25 01:35:55;;;;;;;6.38;6.07;;;;;;;14.40;86.10;99968.16;5052281;28;20021;-61
2022/04/25 01:38:21;;;;;;;6.15;5.90;;;;;;;14.36;86.25;99968.56;5040132;28;20030;-62
2022/04/25 01:40:47;;;;;;;6.20;5.95;;;;;;;14.35;86.31;99979.47;5051442;28;20067;-62
2022/04/25 01:43:13;;;;;;;6.32;6.03;;;;;;;14.36;85.46;99984.56;5052434;28;20476;-62
2022/04/25 01:45:41;;;;;;;6.30;6.00;;;;;;;14.31;86.12;99959.56;5051644;28;20476;-61
2022/04/25 01:48:07;;;;;;;6.47;6.18;;;;;;;14.36;85.04;99975.75;5051965;28;20060;-61
2022/04/25 01:50:32;;;;;;;6.50;6.20;;;;;;;14.40;84.56;99976.16;5052153;28;20071;-61
2022/04/25 01:52:58;;;;;;;6.43;6.13;;;;;;;14.36;85.41;99975.75;5043165;28;20056;-61
2022/04/25 01:55:24;;;;;;;6.10;5.90;;;;;;;14.39;85.44;99975.31;5050797;28;20021;-62
2022/04/25 01:57:50;;;;;;;6.15;5.93;;;;;;;14.38;84.44;99968.34;5051950;28;20562;-61
2022/04/25 02:00:15;;;;;;;6.13;5.93;;;;;;;14.23;86.63;99973.97;5051996;28;20052;-62
2022/04/25 02:02:41;;;;;;;6.25;5.97;;;;;;;14.21;86.48;99978.69;5049329;28;20266;-61
2022/04/25 02:05:07;;;;;;;6.38;6.07;;;;;;;14.13;87.72;99986.13;5050818;28;20024;-61
2022/04/25 02:07:33;;;;;;;6.35;6.05;;;;;;;14.14;86.96;99969.91;5045304;28;20115;-62
2022/04/25 02:09:58;;;;;;;6.35;6.05;;;;;;;14.16;86.83;99962.50;5051776;28;20040;-61
2022/04/25 02:12:24;;;;;;;6.25;5.97;;;;;;;14.16;87.08;99967.84;5051919;28;20071;-62
2022/04/25 02:14:50;;;;;;;6.15;5.93;;;;;;;14.05;87.73;99960.50;5052327;28;20055;-63
2022/04/25 02:17:16;;;;;;;6.55;6.25;;;;;;;14.11;87.03;99954.34;5051605;28;20434;-61
2022/04/25 02:19:44;;;;;;;6.55;6.25;;;;;;;14.11;86.62;99965.00;5046736;28;20453;-61
2022/04/25 02:22:11;;;;;;;6.75;6.45;;;;;;;14.12;87.14;99973.81;5051092;28;20067;-61
2022/04/25 02:24:38;;;;;;;6.10;5.90;;;;;;;14.06;87.35;99972.81;5043571;28;20408;-62
2022/04/25 02:27:05;;;;;;;6.05;5.85;;;;;;;13.96;87.91;99969.78;5046638;28;20024;-62
2022/04/25 02:29:38;;;;;;;6.13;5.93;;;;;;;13.99;87.46;99975.50;5051706;28;20420;-62
2022/04/25 02:32:05;;;;;;;6.40;6.10;;;;;;;13.88;89.00;99980.66;5050351;28;20030;-62
2022/04/25 02:34:31;;;;;;;6.28;5.97;;;;;;;13.80;89.07;99976.34;5040554;28;20102;-61
2022/04/25 02:36:57;;;;;;;6.40;6.10;;;;;;;13.51;92.25;99980.31;5050343;28;20080;-61
2022/04/25 02:39:24;;;;;;;6.40;6.10;;;;;;;13.57;91.57;99976.00;5051825;28;20463;-61
2022/04/25 02:41:50;;;;;;;6.10;5.90;;;;;;;13.74;89.58;99974.56;5037979;28;20020;-61
2022/04/25 02:44:16;;;;;;;6.35;6.05;;;;;;;13.76;88.96;99978.63;5043643;28;20469;-62
2022/04/25 02:46:42;;;;;;;6.30;6.00;;;;;;;13.82;88.83;99985.00;5051464;28;20029;-60
2022/04/25 02:49:07;;;;;;;6.05;5.85;;;;;;;13.73;89.17;99976.38;5044906;28;20369;-62
2022/04/25 02:51:33;;;;;;;6.30;6.00;;;;;;;13.69;89.43;99980.50;5051102;28;20032;-62
2022/04/25 02:53:58;;;;;;;6.65;6.35;;;;;;;13.67;89.58;99982.56;5050804;28;20057;-61
2022/04/25 02:56:24;;;;;;;6.05;5.85;;;;;;;13.70;89.37;99981.31;5051179;28;20056;-62
2022/04/25 02:58:49;;;;;;;6.05;5.85;;;;;;;13.49;90.40;99975.19;5051315;28;20488;-62
2022/04/25 03:01:15;;;;;;;6.65;6.35;;;;;;;13.01;92.61;99963.94;5050578;28;20033;-61
2022/04/25 03:03:40;;;;;;;6.28;6.00;;;;;;;12.93;94.88;99975.59;5045845;28;20056;-62
2022/04/25 03:06:08;;;;;;;6.45;6.15;;;;;;;12.88;94.91;99983.38;5051456;28;20438;-61
2022/04/25 03:08:37;;;;;;;6.10;5.88;;;;;;;12.87;94.69;99994.22;5051106;28;20029;-62
2022/04/25 03:11:04;;;;;;;6.50;6.20;;;;;;;12.82;95.07;99986.84;5050049;28;20036;-62
2022/04/25 03:13:31;;;;;;;6.10;5.90;;;;;;;12.73;96.35;99996.03;5051248;28;20033;-62
2022/04/25 03:15:57;;;;;;;6.50;6.20;;;;;;;12.68;96.75;99996.63;5046720;28;20477;-61
2022/04/25 03:18:23;;;;;;;6.60;6.30;;;;;;;12.75;96.26;99993.97;5050905;28;20052;-61
2022/04/25 03:20:49;;;;;;;6.45;6.15;;;;;;;12.77;96.36;99989.28;5050924;28;20104;-62
2022/04/25 03:23:20;;;;;;;6.13;5.93;;;;;;;12.75;96.70;99986.00;5051057;28;20029;-61
2022/04/25 03:25:45;;;;;;;6.85;6.55;;;;;;;12.68;96.94;99993.16;5037741;28;20028;-62
2022/04/25 03:28:12;;;;;;;6.30;6.00;;;;;;;12.68;96.64;99996.63;5050269;28;20677;-62
2022/04/25 03:30:38;;;;;;;6.20;6.00;;;;;;;12.69;96.57;100000.91;5041044;28;20065;-62
2022/04/25 03:33:03;;;;;;;6.50;6.20;;;;;;;12.71;96.43;100001.56;5055504;28;20449;-62
2022/04/25 03:35:29;;;;;;;6.72;6.43;;;;;;;12.67;96.50;99992.34;5054438;28;20112;-61
2022/04/25 03:37:55;;;;;;;6.25;5.97;;;;;;;12.55;97.92;99985.94;5040905;28;20060;-62
2022/04/25 03:40:20;;;;;;;6.50;6.20;;;;;;;12.57;98.15;99996.41;5054448;28;20049;-62
2022/04/25 03:42:46;;;;;;;6.50;6.20;;;;;;;12.65;97.25;99999.69;5050084;28;20021;-62
2022/04/25 03:45:18;;;;;;;6.40;6.10;;;;;;;12.69;97.02;99990.28;5047315;28;20111;-61
2022/04/25 03:47:45;;;;;;;6.38;6.07;;;;;;;12.75;96.21;99985.19;5046508;28;20040;-62
2022/04/25 03:50:12;;;;;;;6.25;5.95;;;;;;;12.99;94.67;99995.25;5054180;28;20538;-62
2022/04/25 03:52:39;;;;;;;5.90;5.70;;;;;;;13.20;92.49;99999.59;5054609;28;20483;-61
2022/04/25 03:57:54;;;;;;;6.00;5.80;;;;;;;13.35;93.33;100005.53;5051103;28;20125;-62
2022/04/25 04:00:21;;;;;;;6.60;6.30;;;;;;;13.30;93.23;100008.00;5044096;28;20017;-62
2022/04/25 04:02:46;;;;;;;6.50;6.20;;;;;;;13.36;92.68;100001.84;5052591;28;20040;-62
2022/04/25 04:05:12;;;;;;;6.30;6.00;;;;;;;13.49;92.37;100006.34;5054340;28;20024;-62
2022/04/25 04:07:39;;;;;;;6.50;6.20;;;;;;;13.58;91.82;100006.94;5054284;28;20028;-62
2022/04/25 04:10:05;;;;;;;6.50;6.20;;;;;;;13.64;92.12;100006.94;5054097;28;20108;-61
2022/04/25 04:12:31;;;;;;;6.38;6.07;;;;;;;13.38;94.05;100002.47;5046174;28;20460;-62
2022/04/25 04:14:59;;;;;;;6.55;6.25;;;;;;;13.65;92.40;100021.91;5043425;28;20399;-62
2022/04/25 04:17:28;;;;;;;6.13;5.93;;;;;;;13.95;90.31;100030.25;5052452;28;20493;-62
2022/04/25 04:19:53;;;;;;;6.30;6.00;;;;;;;14.01;89.91;100032.09;5052017;28;20021;-62
2022/04/25 04:22:22;;;;;;;6.10;5.90;;;;;;;13.72;91.95;100027.22;5053845;28;20066;-61
2022/04/25 04:24:48;;;;;;;6.00;5.80;;;;;;;13.65;92.00;100034.41;5053709;28;20024;-61
2022/04/25 04:27:14;;;;;;;6.35;6.07;;;;;;;13.59;92.67;100036.09;5043662;28;20503;-62
2022/04/25 04:29:40;;;;;;;6.28;5.97;;;;;;;13.50;93.20;100032.78;5053443;28;20112;-61
2022/04/25 04:32:07;;;;;;;6.55;6.25;;;;;;;13.48;90.92;100026.84;5053482;28;20107;-62
2022/04/25 04:34:37;;;;;;;6.25;5.97;;;;;;;13.58;91.11;100029.09;5054545;28;20078;-62
2022/04/25 04:37:03;;;;;;;6.20;5.95;;;;;;;13.70;89.58;100026.63;5052546;28;20028;-61
2022/04/25 04:39:31;;;;;;;6.47;6.18;;;;;;;14.19;87.24;100025.28;5053373;28;20021;-61
2022/04/25 04:41:56;;;;;;;6.32;6.03;;;;;;;14.89;83.32;100018.19;5047427;28;20494;-64
2022/04/25 04:44:22;;;;;;;6.40;6.10;;;;;;;15.22;82.09;100026.00;5039275;28;20032;-62
2022/04/25 04:46:48;;;;;;;6.13;5.90;;;;;;;15.40;81.35;100036.72;5053246;28;20083;-61
2022/04/25 04:49:14;;;;;;;6.53;6.22;;;;;;;15.26;82.76;100043.22;5052728;28;20031;-63
2022/04/25 04:51:40;;;;;;;6.80;6.50;;;;;;;15.26;83.28;100029.03;5052932;28;20036;-62
2022/04/25 04:54:05;;;;;;;6.25;5.97;;;;;;;15.44;81.15;100021.09;5049399;28;20025;-62
2022/04/25 04:56:31;;;;;;;6.05;5.85;;;;;;;15.62;80.04;100023.00;5051807;28;20781;-62
2022/04/25 04:58:58;;;;;;;6.70;6.40;;;;;;;15.71;78.91;100025.16;5053283;28;20051;-62
2022/04/25 05:01:24;;;;;;;6.60;6.30;;;;;;;15.64;79.19;100020.94;5052162;28;20033;-63
2022/04/25 05:03:50;;;;;;;6.40;6.10;;;;;;;15.49;80.20;100032.75;5052980;28;20549;-61
2022/04/25 05:06:16;;;;;;;6.40;6.10;;;;;;;15.63;79.94;100036.16;5053152;28;20029;-62
2022/04/25 05:08:42;;;;;;;6.53;6.22;;;;;;;15.55;79.37;100035.59;5051373;28;20023;-61
2022/04/25 05:11:09;;;;;;;6.60;6.30;;;;;;;15.58;79.18;100038.66;5051743;28;20028;-62
2022/04/25 05:13:36;;;;;;;7.00;6.70;;;;;;;15.33;80.58;100029.81;5052547;28;20051;-63
2022/04/25 05:16:02;;;;;;;7.13;6.82;;;;;;;15.13;81.69;100012.09;5052108;28;20029;-63
2022/04/25 05:18:32;;;;;;;6.20;6.00;;;;;;;14.84;83.10;100016.19;5052567;28;20017;-62
2022/04/25 05:21:01;;;;;;;6.60;6.30;;;;;;;15.10;81.88;100015.19;5038938;28;20028;-61
2022/04/25 05:23:27;;;;;;;6.50;6.20;;;;;;;15.06;82.80;100011.31;5039843;28;20048;-62
2022/04/25 05:25:53;;;;;;;6.55;6.25;;;;;;;15.23;81.18;100000.09;5052211;28;20021;-61
2022/04/25 05:28:19;;;;;;;6.40;6.10;;;;;;;15.02;82.86;99999.41;5051317;28;20112;-62
2022/04/25 05:30:44;;;;;;;6.50;6.20;;;;;;;15.33;83.08;99993.22;5038627;28;20108;-62
2022/04/25 05:33:10;;;;;;;6.30;6.00;;;;;;;15.68;80.47;99990.06;5061558;28;20043;-62
2022/04/25 05:35:37;;;;;;;6.38;6.07;;;;;;;15.62;80.45;99991.75;5054754;28;20372;-61
2022/04/25 05:38:04;;;;;;;7.00;6.70;;;;;;;16.13;77.48;99997.78;5045059;28;20025;-61
2022/04/25 05:40:30;;;;;;;6.85;6.55;;;;;;;15.26;81.31;99981.75;5052475;28;20029;-60
2022/04/25 05:42:57;;;;;;;6.63;6.32;;;;;;;16.05;77.35;99980.19;5045220;28;20025;-61
2022/04/25 05:45:24;;;;;;;6.70;6.40;;;;;;;16.43;73.21;99973.75;5048105;28;20021;-63
2022/04/25 05:47:54;;;;;;;6.80;6.50;;;;;;;16.13;72.67;99977.19;5052081;28;20048;-63
2022/04/25 05:53:04;;;;;;;7.00;6.70;;;;;;;17.75;67.25;99968.19;5052220;28;20040;-63
2022/04/25 05:55:30;;;;;;;6.70;6.40;;;;;;;16.69;69.30;99957.34;5047978;28;20036;-63
2022/04/25 05:57:57;;;;;;;6.78;6.47;;;;;;;15.93;71.36;99963.22;5052118;28;20049;-61
2022/04/25 06:00:24;;;;;;;6.60;6.30;;;;;;;16.36;71.58;99946.25;5052368;28;20095;-62
2022/04/25 06:02:49;;;;;;;6.60;6.30;;;;;;;16.67;70.52;99945.19;5050515;28;20056;-62
2022/04/25 06:05:15;;;;;;;6.40;6.10;;;;;;;17.17;68.48;99932.25;5052144;28;20476;-61
2022/04/25 06:07:43;;;;;;;6.50;6.20;;;;;;;16.43;71.46;99933.56;5051772;28;20100;-63
2022/04/25 06:10:10;;;;;;;6.70;6.40;;;;;;;16.30;73.74;99922.03;5050505;28;20029;-62
2022/04/25 06:12:48;;;;;;;6.57;6.28;;;;;;;16.88;71.34;99927.78;5051980;28;20079;-62
2022/04/25 06:15:16;;;;;;;6.40;6.10;;;;;;;17.65;68.48;99921.28;5044262;28;20037;-63
2022/04/25 06:17:42;;;;;;;6.70;6.40;;;;;;;16.68;72.52;99925.41;5031790;28;20060;-62
2022/04/25 06:20:09;;;;;;;6.45;6.15;;;;;;;16.64;72.47;99941.09;5051911;28;20395;-63
2022/04/25 06:22:35;;;;;;;6.90;6.60;;;;;;;17.22;70.56;99936.94;5051585;28;20024;-61
2022/04/25 06:25:01;;;;;;;6.70;6.40;;;;;;;17.38;70.63;99937.03;5049559;28;20040;-63
2022/04/25 06:27:26;;;;;;;6.70;6.40;;;;;;;17.64;69.45;99942.97;5040641;28;20021;-63
2022/04/25 06:29:52;;;;;;;6.70;6.40;;;;;;;17.31;70.87;99941.69;5051548;28;20473;-63
2022/04/25 06:32:19;;;;;;;6.20;6.00;;;;;;;17.44;70.20;99937.97;5049760;28;20024;-62
2022/04/25 06:34:44;;;;;;;6.60;6.30;;;;;;;16.72;73.71;99930.09;5047800;28;20053;-63
2022/04/25 06:37:10;;;;;;;6.95;6.65;;;;;;;16.65;74.66;99932.03;5054343;28;20484;-62
2022/04/25 06:39:35;;;;;;;7.15;6.85;;;;;;;16.59;75.03;99932.94;5051862;28;20115;-62
2022/04/25 06:42:01;;;;;;;6.80;6.50;;;;;;;16.97;73.49;99934.47;5051169;28;20510;-60
2022/04/25 06:44:27;;;;;;;6.70;6.40;;;;;;;16.74;74.03;99930.66;5051795;28;20108;-61
2022/04/25 06:46:53;;;;;;;6.78;6.47;;;;;;;17.47;71.60;99925.97;5043446;28;20104;-61
2022/04/25 06:49:23;;;;;;;6.60;6.30;;;;;;;17.50;71.28;99923.63;5051363;28;20110;-61
2022/04/25 06:51:54;;;;;;;7.55;7.25;;;;;;;18.16;69.33;99933.09;5042874;28;20025;-62
2022/04/25 06:54:20;;;;;;;6.80;6.50;;;;;;;18.45;68.50;99946.53;5051408;28;20100;-62
2022/04/25 06:56:46;;;;;;;6.63;6.32;;;;;;;18.43;68.55;99957.47;5051400;28;20456;-62
2022/04/25 06:59:12;;;;;;;7.18;6.88;;;;;;;18.09;69.60;99975.34;5050557;28;20028;-63
2022/04/25 07:01:39;;;;;;;6.80;6.50;;;;;;;17.95;70.16;99984.72;5040848;28;20021;-62
2022/04/25 07:04:06;;;;;;;6.75;6.45;;;;;;;17.82;70.82;99967.00;5051779;28;20100;-61
2022/04/25 07:06:32;;;;;;;6.50;6.20;;;;;;;17.12;72.49;99949.03;5041747;28;20025;-61
2022/04/25 07:08:57;;;;;;;6.70;6.40;;;;;;;16.38;77.47;99969.09;5052157;28;20156;-62
2022/04/25 07:11:22;;;;;;;6.60;6.30;;;;;;;17.07;73.94;99965.00;5044244;28;20024;-61
2022/04/25 07:13:48;;;;;;;6.53;6.22;;;;;;;17.35;72.67;99967.00;5050459;28;20023;-62
2022/04/25 07:16:14;;;;;;;6.80;6.50;;;;;;;16.27;77.02;99961.81;5042013;28;20028;-61
2022/04/25 07:18:39;;;;;;;6.70;6.40;;;;;;;16.29;78.49;99952.50;5050728;28;20393;-63
2022/04/25 07:29:17;;;;;;;6.68;6.38;;;;;;;16.43;77.27;99963.03;5052081;28;20281;-63
2022/04/25 07:31:43;;;;;;;7.10;6.80;;;;;;;16.31;79.04;99963.00;5054397;28;20021;-62
2022/04/25 07:34:09;;;;;;;7.03;6.72;;;;;;;16.39;79.60;99962.69;5041413;28;20029;-63
2022/04/25 07:36:36;;;;;;;6.60;6.30;;;;;;;16.52;78.71;99989.25;5054764;28;20033;-62
2022/04/25 07:39:03;;;;;;;6.50;6.20;;;;;;;17.73;74.02;100011.34;5054459;28;20366;-63
2022/04/25 07:41:29;;;;;;;6.47;6.18;;;;;;;17.74;75.88;100037.13;5053299;28;20523;-61
2022/04/25 07:43:55;;;;;;;6.80;6.50;;;;;;;17.52;76.80;100049.44;5053679;28;20063;-62
2022/04/25 07:46:23;;;;;;;7.30;7.00;;;;;;;17.35;77.15;100050.13;5053297;28;20017;-63
2022/04/25 07:48:49;;;;;;;7.30;7.00;;;;;;;17.25;77.12;100023.03;5045390;28;20051;-62
2022/04/25 07:51:15;;;;;;;6.90;6.60;;;;;;;17.24;76.92;100021.41;5054222;28;20043;-62
2022/04/25 07:53:41;;;;;;;6.80;6.50;;;;;;;16.73;77.60;100036.19;5054198;28;20024;-62
2022/04/25 07:56:07;;;;;;;7.18;6.88;;;;;;;16.15;80.82;100028.63;5053799;28;20579;-63
2022/04/25 07:58:34;;;;;;;6.95;6.65;;;;;;;15.86;82.23;100015.97;5054151;28;20021;-61
2022/04/25 08:01:00;;;;;;;6.60;6.30;;;;;;;16.28;81.06;100011.59;5047821;28;20033;-62
2022/04/25 08:03:26;;;;;;;6.70;6.40;;;;;;;16.08;82.27;100008.34;5052778;28;20017;-63
2022/04/25 08:05:52;;;;;;;6.80;6.50;;;;;;;16.02;82.73;99997.50;5053950;28;20377;-62
2022/04/25 08:08:17;;;;;;;6.70;6.40;;;;;;;15.87;83.54;100001.59;5054238;28;20029;-63
2022/04/25 08:10:43;;;;;;;6.63;6.32;;;;;;;15.56;84.29;99986.44;5053712;28;20384;-62
2022/04/25 08:18:36;;;;;;;6.80;6.50;;;;;;;15.69;87.66;99986.34;5047288;28;20090;-61
2022/04/25 08:21:02;;;;;;;6.70;6.40;;;;;;;15.62;86.22;99998.94;5053683;28;20258;-63
2022/04/25 08:23:27;;;;;;;7.30;7.00;;;;;;;15.71;86.08;100019.00;5053998;28;20035;-61
2022/04/25 08:25:53;;;;;;;6.95;6.65;;;;;;;15.65;86.69;100030.59;5053800;28;20465;-63
2022/04/25 08:28:19;;;;;;;6.90;6.60;;;;;;;15.86;85.36;100030.16;5044669;28;20528;-63
2022/04/25 08:30:45;;;;;;;7.03;6.72;;;;;;;15.97;85.56;100031.31;5050478;28;20067;-62
2022/04/25 08:33:12;;;;;;;6.70;6.40;;;;;;;15.60;87.51;100027.75;5062493;28;20028;-62
2022/04/25 08:35:38;;;;;;;6.60;6.30;;;;;;;15.57;87.36;100020.13;5054064;28;20032;-62
2022/04/25 08:38:04;;;;;;;6.70;6.40;;;;;;;15.56;89.54;100005.13;5053504;28;20032;-62
2022/04/25 08:40:29;;;;;;;6.70;6.40;;;;;;;15.81;87.73;100005.16;5053573;28;20017;-63
2022/04/25 08:42:57;;;;;;;6.90;6.60;;;;;;;15.99;88.31;99995.25;5049996;28;20025;-62
2022/04/25 08:45:23;;;;;;;6.47;6.18;;;;;;;15.94;89.95;99981.75;5049739;28;20450;-62
2022/04/25 08:47:58;;;;;;;6.53;6.22;;;;;;;16.04;89.60;99970.53;5052311;28;20112;-62
2022/04/25 08:50:25;;;;;;;6.70;6.40;;;;;;;16.60;87.72;99953.34;5053039;28;20158;-62
2022/04/25 08:52:52;;;;;;;6.82;6.53;;;;;;;17.64;81.42;99940.31;5052152;28;20435;-63
2022/04/25 08:55:18;;;;;;;6.70;6.40;;;;;;;18.36;80.04;99932.66;5053128;28;20029;-63
2022/04/25 08:57:46;;;;;;;6.90;6.60;;;;;;;18.33;80.57;99929.63;5043655;28;20044;-62
2022/04/25 09:00:12;;;;;;;6.60;6.30;;;;;;;18.67;78.57;99944.81;5051642;28;20151;-63
2022/04/25 09:02:41;;;;;;;6.63;6.32;;;;;;;18.32;77.88;99942.25;5053188;28;20032;-63
2022/04/25 09:05:09;;;;;;;6.70;6.40;;;;;;;17.95;76.14;99939.91;5053312;28;20043;-61
2022/04/25 09:07:39;;;;;;;6.70;6.40;;;;;;;18.15;74.81;99939.53;5053051;28;20021;-61
2022/04/25 09:10:10;;;;;;;7.03;6.72;;;;;;;18.36;76.74;99938.03;5052432;28;20147;-62
2022/04/25 09:12:41;;;;;;;6.55;6.25;;;;;;;17.94;77.14;99943.66;5041031;28;20028;-63
2022/04/25 09:15:08;;;;;;;6.70;6.40;;;;;;;17.83;78.46;99944.47;5050598;28;20108;-62
2022/04/25 09:17:35;;;;;;;6.80;6.50;;;;;;;18.28;76.50;99957.19;5052715;28;20028;-62
2022/04/25 09:20:01;;;;;;;6.72;6.43;;;;;;;17.87;77.75;99961.75;5052569;28;20056;-63
2022/04/25 09:22:32;;;;;;;6.88;6.57;;;;;;;17.89;76.00;99974.94;5052820;28;20162;-62
2022/04/25 09:25:18;;;;;;;6.90;6.60;;;;;;;17.45;77.18;99976.34;5049385;28;20044;-62
2022/04/25 09:27:46;;;;;;;6.50;6.20;;;;;;;18.02;75.55;99979.22;5040672;28;20044;-62
2022/04/25 09:30:19;;;;;;;6.78;6.47;;;;;;;18.07;75.75;100004.31;5051403;28;20036;-62
2022/04/25 09:32:53;;;;;;;6.60;6.30;;;;;;;18.18;75.34;100043.72;5052345;28;20037;-62
2022/04/25 09:35:24;;;;;;;;;;;;;;;17.84;73.04;100056.13;5040143;28;20070;-62
2022/04/25 09:37:50;;;;;;;6.72;6.43;;;;;;;17.85;73.64;100051.59;5052484;28;19915;-63
2022/04/25 09:40:23;;;;;;;7.20;6.90;;;;;;;18.05;72.87;100024.38;5047942;28;20384;-63
2022/04/25 09:43:05;;;;;;;6.95;6.65;;;;;;;17.90;74.27;99988.09;5049806;28;20021;-61
2022/04/25 09:45:33;;;;;;;7.15;6.85;;;;;;;18.69;71.03;99971.44;5052221;28;20025;-63
2022/04/25 09:47:59;;;;;;;6.80;6.50;;;;;;;19.18;72.31;99963.66;5050025;28;20059;-64
2022/04/25 09:50:27;;;;;;;6.85;6.55;;;;;;;18.78;72.10;99962.72;5041819;28;20028;-63
2022/04/25 09:52:58;;;;;;;6.82;6.53;;;;;;;19.05;69.48;99937.91;5052127;28;20049;-63
2022/04/25 09:55:27;;;;;;;6.85;6.55;;;;;;;19.12;67.04;99932.38;5052090;28;20025;-61
2022/04/25 09:57:52;;;;;;;6.93;6.63;;;;;;;19.82;65.71;99924.50;5049798;28;20059;-61
2022/04/25 10:00:38;;;;;;;6.80;6.50;;;;;;;18.77;65.97;99917.28;5045412;28;20028;-61
2022/04/25 10:03:08;;;;;;;7.00;6.70;;;;;;;18.93;66.19;99911.09;5052076;28;20388;-62
2022/04/25 10:05:44;;;;;;;6.90;6.60;;;;;;;19.15;63.81;99902.28;5052104;28;20029;-61
2022/04/25 10:08:12;;;;;;;7.10;6.80;;;;;;;19.60;63.20;99873.38;5051810;28;20029;-61
2022/04/25 10:10:41;;;;;;;6.90;6.60;;;;;;;19.11;62.75;99875.09;5044505;28;20021;-62
2022/04/25 10:13:09;;;;;;;6.90;6.60;;;;;;;19.68;58.87;99877.50;5052059;28;20054;-63
2022/04/25 10:15:37;;;;;;;6.80;6.50;;;;;;;19.66;58.04;99882.31;5040132;28;20029;-62
2022/04/25 10:18:04;;;;;;;6.78;6.47;;;;;;;19.69;56.38;99878.34;5038911;28;20025;-61
2022/04/25 10:20:31;;;;;;;6.70;6.40;;;;;;;19.44;58.63;99863.44;5051916;28;20013;-62
2022/04/25 10:22:57;;;;;;;6.90;6.60;;;;;;;19.82;58.69;99843.75;5051356;28;20024;-61
2022/04/25 10:25:22;;;;;;;7.00;6.70;;;;;;;20.25;58.28;99839.34;5051588;28;20090;-62
2022/04/25 10:27:49;;;;;;;6.82;6.53;;;;;;;20.07;57.16;99845.13;5046928;28;20435;-63
2022/04/25 10:30:17;;;;;;;6.75;6.45;;;;;;;19.73;53.22;99868.69;5044972;28;20507;-62
2022/04/25 10:32:43;;;;;;;6.82;6.53;;;;;;;20.08;49.09;99842.16;5050624;28;20020;-63
2022/04/25 10:35:29;;;;;;;6.57;6.28;;;;;;;20.04;48.74;99841.03;5051310;28;20111;-63
2022/04/25 10:37:55;;;;;;;7.55;7.25;;;;;;;19.74;46.68;99854.16;5048953;28;20481;-62
2022/04/25 10:46:13;;;;;;;6.90;6.60;;;;;;;20.11;51.21;99803.94;5055501;28;20043;-62
2022/04/25 10:49:09;;;;;;;7.00;6.70;;;;;;;20.04;51.61;99811.41;5053701;28;20055;-62
2022/04/25 10:51:39;;;;;;;6.75;6.45;;;;;;;19.99;53.78;99797.94;5054841;28;20131;-62
2022/04/25 10:54:05;;;;;;;6.95;6.65;;;;;;;19.97;53.11;99800.03;5045552;28;20388;-62
2022/04/25 10:56:32;;;;;;;6.93;6.63;;;;;;;20.62;53.21;99812.50;5051965;28;20044;-63
2022/04/25 10:59:28;;;;;;;6.78;6.47;;;;;;;20.07;54.78;99813.63;5055804;28;20476;-62
2022/04/25 11:01:57;;;;;;;6.85;6.55;;;;;;;19.76;56.44;99811.69;5042841;28;20472;-62
2022/04/25 11:04:23;;;;;;;6.78;6.47;;;;;;;20.45;55.79;99805.63;5055264;28;20033;-61
2022/04/25 11:07:08;;;;;;;6.90;6.60;;;;;;;20.73;53.56;99805.31;5053934;28;20033;-62
2022/04/25 11:09:40;;;;;;;6.90;6.60;;;;;;;21.13;53.47;99796.66;5052269;28;20142;-62
2022/04/25 11:12:06;;;;;;;7.00;6.70;;;;;;;21.20;52.59;99804.50;5050062;28;20037;-62
2022/04/25 11:14:31;;;;;;;6.70;6.40;;;;;;;21.09;52.65;99798.25;5037307;28;20029;-62
2022/04/25 11:17:14;;;;;;;6.60;6.30;;;;;;;20.53;51.98;99815.94;5053673;28;20032;-61
2022/04/25 11:19:47;;;;;;;6.70;6.40;;;;;;;20.95;52.28;99811.38;5054717;28;20511;-64
2022/04/25 11:22:29;;;;;;;6.78;6.47;;;;;;;20.99;51.42;99792.78;5054582;28;20033;-63
2022/04/25 11:24:55;;;;;;;6.75;6.45;;;;;;;20.78;51.62;99786.47;5053990;28;20024;-63
2022/04/25 11:27:21;;;;;;;6.88;6.57;;;;;;;20.71;52.28;99783.19;5053898;28;20448;-62
2022/04/25 11:30:14;;;;;;;6.90;6.60;;;;;;;20.64;51.63;99804.19;5045935;28;20039;-63
2022/04/25 11:32:43;;;;;;;6.93;6.63;;;;;;;20.88;52.77;99813.50;5049008;28;20024;-63
2022/04/25 11:35:10;;;;;;;6.60;6.30;;;;;;;20.57;52.62;99788.22;5060324;28;20039;-62
2022/04/25 11:37:36;;;;;;;6.93;6.63;;;;;;;20.63;52.39;99794.44;5054611;28;20017;-62
2022/04/25 11:40:06;;;;;;;6.75;6.45;;;;;;;20.82;52.86;99779.47;5054505;28;20017;-63
2022/04/25 11:42:34;;;;;;;6.75;6.45;;;;;;;20.65;52.63;99781.53;5049419;28;20078;-63
2022/04/25 11:45:01;;;;;;;6.80;6.50;;;;;;;20.76;52.99;99768.94;5054605;28;20029;-62
2022/04/25 11:47:28;;;;;;;6.90;6.60;;;;;;;21.04;52.75;99773.13;5053576;28;20086;-62
2022/04/25 11:50:03;;;;;;;6.78;6.47;;;;;;;20.82;52.95;99784.88;5048832;28;20029;-63
2022/04/25 11:52:29;;;;;;;6.53;6.22;;;;;;;20.90;52.93;99783.56;5050950;28;20116;-63
2022/04/25 11:54:55;;;;;;;6.70;6.40;;;;;;;20.66;52.36;99802.03;5054390;28;20035;-63
2022/04/25 11:57:21;;;;;;;6.88;6.57;;;;;;;20.76;52.46;99769.75;5053982;28;20045;-63
2022/04/25 11:59:47;;;;;;;6.90;6.60;;;;;;;20.59;53.04;99775.28;5053335;28;20037;-62
2022/04/25 12:02:13;;;;;;;6.80;6.50;;;;;;;20.50;52.66;99776.03;5054125;28;20028;-63
2022/04/25 12:04:39;;;;;;;6.63;6.32;;;;;;;20.55;52.57;99782.25;5046482;28;20100;-62